M I D A S
Marine Information and Data Acquisition System
Tripno 1327 of the Zeeleeuw from 2007-08-30 07:01:54 to 2007-08-30 14:55:45
Back to CruiseResearch ActivitiesStationsMapUnderway DataData graphs

EquipmentUnitsComments
TimeDGPSUTC
LatitudeDGPSDM.mWGS84
LongitudeDGPSDM.mWGS84
SpeedMeteo Stationm/sRelative wind speed
DirectionMeteo StationdegRelative wind direction
TemperatureMeteo Stationdeg CelciusAir temperature
PressureMeteo StationPaAtmospheric pressure
HumidityMeteo Station%Relative humidity
Missing or incorrect values are displayed as -999
Metereological data collected by the RV Zeeleeuw from 2007-08-30 07:01:30 to 2007-08-30 15:06:31
Time Latitude Longitude Speed Direction Temperature Pressure Humidity
2007-08-30 07:02 51°13.62 2°56.032 -999 -999 -999 -999 -999
2007-08-30 07:03 51°13.659 2°55.914 5.7 57 17.6 -999 68
2007-08-30 07:04 51°13.682 2°55.797 8.4 58 17.6 101990 67
2007-08-30 07:05 51°13.685 2°55.733 1.6 301 17.4 101990 68
2007-08-30 07:06 51°13.698 2°55.741 4.1 300 17.3 101990 69
2007-08-30 07:07 51°13.767 2°55.695 5.9 331 17.2 101980 69
2007-08-30 07:08 51°13.899 2°55.586 8.1 324 17.1 101980 70
2007-08-30 07:09 51°14.046 2°55.481 10.4 302 17.1 101970 70
2007-08-30 07:10 51°14.187 2°55.359 11.8 302 17.1 101970 71
2007-08-30 07:11 51°14.309 2°55.178 11.3 326 17 101960 73
2007-08-30 07:12 51°14.43 2°54.96 12.1 307 17 101950 74
2007-08-30 07:13 51°14.578 2°54.768 12 305 17 101950 73
2007-08-30 07:14 51°14.754 2°54.599 13.7 304 17 101950 74
2007-08-30 07:15 51°14.927 2°54.454 11.3 309 17 101950 74
2007-08-30 07:16 51°15.095 2°54.291 11.3 304 17 101950 76
2007-08-30 07:17 51°15.264 2°54.127 12.6 304 17 101960 76
2007-08-30 07:18 51°15.435 2°53.97 13 307 17 101950 77
2007-08-30 07:19 51°15.613 2°53.814 11.7 303 16.9 101950 76
2007-08-30 07:20 51°15.787 2°53.665 12.3 307 16.9 101950 75
2007-08-30 07:21 51°15.966 2°53.515 12.2 308 17 101960 78
2007-08-30 07:22 51°16.145 2°53.369 12.2 303 16.9 101950 76
2007-08-30 07:23 51°16.321 2°53.216 11.6 300 16.9 101950 77
2007-08-30 07:24 51°16.502 2°53.063 11.8 305 17 101950 78
2007-08-30 07:25 51°16.68 2°52.918 11.1 308 16.9 101950 78
2007-08-30 07:26 51°16.863 2°52.805 12.2 300 17 101950 79
2007-08-30 07:27 51°17.042 2°52.685 9.8 305 16.9 101950 77
2007-08-30 07:28 51°17.225 2°52.613 11.1 304 16.9 101950 77
2007-08-30 07:29 51°17.329 2°52.547 8.9 302 17 101970 79
2007-08-30 07:30 51°17.382 2°52.5 8.9 303 17.1 101970 79
2007-08-30 07:31 51°17.431 2°52.477 8.4 306 17.1 101970 79
2007-08-30 07:32 51°17.49 2°52.488 6.7 305 17.2 101970 79
2007-08-30 07:33 51°17.542 2°52.537 4.7 308 17.1 101970 78
2007-08-30 07:34 51°17.573 2°52.646 3.1 57 17 101980 77
2007-08-30 07:35 51°17.618 2°52.891 3.4 302 17 101980 78
2007-08-30 07:36 51°17.692 2°53.155 4.5 307 17.1 101980 78
2007-08-30 07:37 51°17.774 2°53.427 4.3 307 17.1 101990 79
2007-08-30 07:38 51°17.864 2°53.677 3.8 302 17.2 101990 79
2007-08-30 07:39 51°17.955 2°53.933 3.1 302 17.2 101990 78
2007-08-30 07:40 51°18.054 2°54.188 4.2 302 17.4 101990 79
2007-08-30 07:41 51°18.154 2°54.435 6.5 309 17.5 101990 77
2007-08-30 07:42 51°18.257 2°54.677 5 306 17.5 101990 77
2007-08-30 07:43 51°18.352 2°54.922 4.7 303 17.5 101990 76
2007-08-30 07:44 51°18.451 2°55.175 4.7 303 17.6 101990 76
2007-08-30 07:45 51°18.549 2°55.412 4.4 306 17.6 101990 77
2007-08-30 07:46 51°18.649 2°55.658 4.3 302 17.7 101990 77
2007-08-30 07:47 51°18.746 2°55.894 4.7 302 17.7 102000 76
2007-08-30 07:48 51°18.846 2°56.135 4.4 307 17.6 101990 76
2007-08-30 07:49 51°18.945 2°56.369 3.7 308 17.6 102000 76
2007-08-30 07:50 51°19.042 2°56.602 5.7 306 17.5 101990 76
2007-08-30 07:51 51°19.134 2°56.832 5.1 309 17.5 101990 75
2007-08-30 07:52 51°19.218 2°57.077 1.7 308 17.4 101990 75
2007-08-30 07:53 51°19.273 2°57.34 3.7 301 17.4 102000 75
2007-08-30 07:54 51°19.345 2°57.589 2.4 301 17.4 101990 74
2007-08-30 07:55 51°19.415 2°57.84 2.6 301 17.4 101990 74
2007-08-30 07:56 51°19.48 2°58.085 1.8 304 17.3 102000 74
2007-08-30 07:57 51°19.537 2°58.344 2.8 305 17.4 102000 75
2007-08-30 07:58 51°19.589 2°58.593 2.9 308 17.5 102000 75
2007-08-30 07:59 51°19.643 2°58.844 2.6 309 17.6 102000 75
2007-08-30 08:00 51°19.702 2°59.098 4.2 302 17.7 102000 75
2007-08-30 08:01 51°19.759 2°59.35 3.3 301 17.8 101990 73
2007-08-30 08:02 51°19.824 2°59.596 2.7 307 17.8 102000 72
2007-08-30 08:03 51°19.878 2°59.849 3.8 303 17.9 102000 73
2007-08-30 08:04 51°19.938 3°0.093 3.6 301 18 102000 72
2007-08-30 08:05 51°20.001 3°0.343 3.9 306 18 101990 71
2007-08-30 08:06 51°20.055 3°0.605 2.3 13 17.9 102000 69
2007-08-30 08:07 51°20.112 3°0.858 1.9 307 17.9 102000 69
2007-08-30 08:08 51°20.162 3°1.116 2.5 303 17.8 102000 70
2007-08-30 08:09 51°20.226 3°1.362 5.6 303 17.9 101990 72
2007-08-30 08:10 51°20.28 3°1.608 4.4 302 17.9 101990 71
2007-08-30 08:11 51°20.333 3°1.865 2.6 308 17.7 102000 70
2007-08-30 08:12 51°20.388 3°2.118 3.4 308 17.6 102000 71
2007-08-30 08:13 51°20.44 3°2.374 4.2 307 17.6 102000 71
2007-08-30 08:14 51°20.493 3°2.631 4 309 17.5 102000 71
2007-08-30 08:15 51°20.546 3°2.888 3.2 300 17.5 102000 71
2007-08-30 08:16 51°20.597 3°3.146 2.8 302 17.5 102000 72
2007-08-30 08:17 51°20.65 3°3.405 4.1 305 17.5 102000 74
2007-08-30 08:18 51°20.7 3°3.668 3.7 302 17.4 102000 73
2007-08-30 08:19 51°20.756 3°3.931 3.4 306 17.4 101990 73
2007-08-30 08:20 51°20.805 3°4.198 3.1 303 17.5 101990 74
2007-08-30 08:21 51°20.855 3°4.462 4.1 309 17.4 101990 74
2007-08-30 08:22 51°20.909 3°4.733 1.7 50 17.4 101990 74
2007-08-30 08:23 51°20.945 3°5.009 1.6 307 17.3 102000 74
2007-08-30 08:24 51°20.988 3°5.281 2 305 17.3 102000 75
2007-08-30 08:25 51°21.027 3°5.56 2.8 309 17.3 102000 75
2007-08-30 08:26 51°21.077 3°5.832 5.6 307 17.4 102000 75
2007-08-30 08:27 51°21.131 3°6.101 4.4 308 17.3 102000 75
2007-08-30 08:28 51°21.187 3°6.364 4.2 302 17.3 102000 74
2007-08-30 08:29 51°21.24 3°6.639 4.3 302 17.2 102000 73
2007-08-30 08:30 51°21.255 3°6.924 2.5 308 17.2 102000 73
2007-08-30 08:31 51°21.278 3°7.205 3.1 301 17.2 102000 73
2007-08-30 08:32 51°21.342 3°7.463 6 301 17.2 102000 73
2007-08-30 08:33 51°21.433 3°7.702 3.9 308 17.3 102000 74
2007-08-30 08:34 51°21.519 3°7.949 5.3 303 17.3 102000 73
2007-08-30 08:35 51°21.607 3°8.195 4.5 307 17.3 102000 74
2007-08-30 08:36 51°21.653 3°8.47 4.3 302 17.4 102010 74
2007-08-30 08:37 51°21.694 3°8.749 2.7 304 17.4 101990 74
2007-08-30 08:38 51°21.692 3°9.035 1.9 307 17.4 102000 73
2007-08-30 08:39 51°21.694 3°9.199 4.4 308 17.3 102000 72
2007-08-30 08:40 51°21.738 3°9.217 8.9 305 17.3 101980 73
2007-08-30 08:41 51°21.757 3°9.105 9.3 341 17.3 101970 73
2007-08-30 08:42 51°21.702 3°9.016 8.2 13 17.3 101970 74
2007-08-30 08:43 51°21.642 3°8.956 8 355 17.2 101980 74
2007-08-30 08:44 51°21.604 3°8.876 7.9 334 17.3 101960 75
2007-08-30 08:45 51°21.586 3°8.762 8.4 329 17.2 101970 73
2007-08-30 08:46 51°21.574 3°8.657 8.5 336 17.4 101980 76
2007-08-30 08:47 51°21.556 3°8.553 9.8 332 17.4 101970 75
2007-08-30 08:48 51°21.55 3°8.454 8.4 330 17.3 101970 72
2007-08-30 08:49 51°21.544 3°8.354 8.2 333 17.2 101970 72
2007-08-30 08:50 51°21.53 3°8.252 7.9 333 17.3 101970 73
2007-08-30 08:51 51°21.525 3°8.153 8.8 325 17.2 101980 72
2007-08-30 08:52 51°21.54 3°8.061 8.2 307 17.3 101980 74
2007-08-30 08:53 51°21.57 3°7.954 9.1 301 17.3 101970 72
2007-08-30 08:54 51°21.595 3°7.864 8.1 309 17.4 101970 73
2007-08-30 08:55 51°21.616 3°7.805 7.3 301 17.4 101970 74
2007-08-30 08:56 51°21.649 3°7.753 9.1 307 17.5 101970 75
2007-08-30 08:57 51°21.686 3°7.71 9.9 302 17.5 101970 73
2007-08-30 08:58 51°21.722 3°7.685 7.2 307 17.5 101970 72
2007-08-30 08:59 51°21.757 3°7.682 7.7 301 17.5 101980 72
2007-08-30 09:00 51°21.787 3°7.701 6 303 17.5 101980 72
2007-08-30 09:01 51°21.807 3°7.713 5.4 300 17.5 101980 72
2007-08-30 09:02 51°21.832 3°7.729 4.8 306 17.4 101980 73
2007-08-30 09:03 51°21.858 3°7.744 6.1 301 17.4 101980 73
2007-08-30 09:04 51°21.882 3°7.76 6.1 302 17.3 101980 73
2007-08-30 09:05 51°21.908 3°7.781 4.6 301 17.4 101980 73
2007-08-30 09:06 51°21.931 3°7.804 6.1 309 17.3 101980 72
2007-08-30 09:07 51°21.951 3°7.828 4.5 303 17.2 101980 71
2007-08-30 09:08 51°21.974 3°7.851 5.8 307 17.2 101980 72
2007-08-30 09:09 51°21.996 3°7.882 5.7 306 17.3 101980 71
2007-08-30 09:10 51°22.01 3°7.92 7.5 59 17.3 101980 72
2007-08-30 09:11 51°22.023 3°7.957 6.3 53 17.2 101980 71
2007-08-30 09:12 51°22.035 3°7.992 6.2 304 17.2 101990 71
2007-08-30 09:13 51°22.045 3°8.023 5.5 307 17.2 101980 71
2007-08-30 09:14 51°22.059 3°8.06 6 309 17.2 101990 71
2007-08-30 09:15 51°22.073 3°8.097 5.2 301 17.2 101980 72
2007-08-30 09:16 51°22.083 3°8.134 5.7 56 17.2 101980 71
2007-08-30 09:17 51°22.084 3°8.165 7 55 17.2 101980 72
2007-08-30 09:18 51°22.067 3°8.192 5.6 54 17.2 101990 72
2007-08-30 09:19 51°22.034 3°8.204 6 30 17.2 101990 73
2007-08-30 09:20 51°22 3°8.188 7.3 24 17.2 101980 73
2007-08-30 09:21 51°21.972 3°8.162 8.1 18 17.3 101990 74
2007-08-30 09:22 51°21.948 3°8.139 7.3 16 17.3 101990 74
2007-08-30 09:23 51°21.927 3°8.116 6.6 13 17.1 101980 71
2007-08-30 09:24 51°21.907 3°8.093 8.2 11 17.2 101980 72
2007-08-30 09:25 51°21.886 3°8.071 5.6 9 17.2 101990 74
2007-08-30 09:26 51°21.85 3°7.984 7.6 337 17.2 101990 74
2007-08-30 09:27 51°21.897 3°7.895 8.4 303 17.2 101980 74
2007-08-30 09:28 51°21.913 3°8.017 1.1 53 17.2 101990 73
2007-08-30 09:29 51°21.926 3°8.276 2 303 17.4 101990 73
2007-08-30 09:30 51°21.974 3°8.554 1.8 304 17.4 101990 72
2007-08-30 09:31 51°22.019 3°8.84 1.4 305 17.6 101990 72
2007-08-30 09:32 51°22.063 3°9.127 3.8 302 17.7 101990 72
2007-08-30 09:33 51°22.135 3°9.286 6.3 302 17.8 101980 71
2007-08-30 09:34 51°22.173 3°9.427 2.3 52 17.8 101990 71
2007-08-30 09:35 51°22.208 3°9.618 2.7 302 17.8 101990 72
2007-08-30 09:36 51°22.264 3°9.902 3.6 303 17.9 101980 72
2007-08-30 09:37 51°22.32 3°10.195 4.1 301 17.8 101980 71
2007-08-30 09:38 51°22.381 3°10.489 4.4 309 17.8 101980 70
2007-08-30 09:39 51°22.445 3°10.787 4.4 300 17.9 101990 69
2007-08-30 09:40 51°22.507 3°11.083 4.4 307 17.9 101980 69
2007-08-30 09:41 51°22.569 3°11.379 3.1 302 18 101990 69
2007-08-30 09:42 51°22.634 3°11.67 3.1 306 18 101980 69
2007-08-30 09:43 51°22.699 3°11.96 4.5 301 18.1 101980 70
2007-08-30 09:44 51°22.769 3°12.248 3.6 303 18.1 101980 69
2007-08-30 09:45 51°22.839 3°12.537 2.7 305 18.1 101980 68
2007-08-30 09:46 51°22.908 3°12.827 4.1 301 18.2 101980 68
2007-08-30 09:47 51°22.976 3°13.114 4 303 18.3 101980 69
2007-08-30 09:48 51°23.048 3°13.4 3.7 303 18.3 101970 69
2007-08-30 09:49 51°23.121 3°13.687 1.6 307 18.3 101980 68
2007-08-30 09:50 51°23.191 3°13.976 3.3 307 18.3 101980 68
2007-08-30 09:51 51°23.262 3°14.263 4.1 306 18.2 101970 68
2007-08-30 09:52 51°23.391 3°14.471 10.4 306 18.1 101970 66
2007-08-30 09:53 51°23.587 3°14.447 10.6 306 18 101950 67
2007-08-30 09:54 51°23.789 3°14.389 10 301 17.9 101950 68
2007-08-30 09:55 51°23.991 3°14.363 10.3 304 17.8 101940 69
2007-08-30 09:56 51°24.196 3°14.346 10.9 306 17.7 101940 69
2007-08-30 09:57 51°24.403 3°14.337 9.9 303 17.6 101940 70
2007-08-30 09:58 51°24.612 3°14.337 11 303 17.4 101940 69
2007-08-30 09:59 51°24.823 3°14.342 9.4 306 17.3 101930 69
2007-08-30 10:00 51°25.026 3°14.337 12.5 303 17.3 101950 70
2007-08-30 10:01 51°25.223 3°14.314 10.1 303 17.4 101940 71
2007-08-30 10:02 51°25.417 3°14.289 11.9 301 17.4 101930 71
2007-08-30 10:03 51°25.558 3°14.131 14 299 17.4 101930 71
2007-08-30 10:04 51°25.508 3°13.833 12 333 17.4 101930 72
2007-08-30 10:05 51°25.457 3°13.511 13.7 333 17.4 101930 72
2007-08-30 10:06 51°25.401 3°13.191 14 332 17.3 101920 70
2007-08-30 10:07 51°25.362 3°12.866 13.4 335 17.3 101920 70
2007-08-30 10:08 51°25.323 3°12.542 14.8 333 17.3 101930 70
2007-08-30 10:09 51°25.276 3°12.218 14.4 334 17.3 101910 70
2007-08-30 10:10 51°25.228 3°11.895 13.1 334 17.3 101930 71
2007-08-30 10:11 51°25.183 3°11.571 12.5 332 17.3 101930 71
2007-08-30 10:12 51°25.136 3°11.248 13.2 333 17.3 101930 71
2007-08-30 10:13 51°25.089 3°10.925 13.9 335 17.2 101930 68
2007-08-30 10:14 51°25.041 3°10.605 13 331 17.2 101930 69
2007-08-30 10:15 51°25 3°10.282 14.9 331 17.2 101940 69
2007-08-30 10:16 51°24.951 3°9.961 14 333 17.3 101930 69
2007-08-30 10:17 51°24.901 3°9.639 14.9 332 17.2 101940 68
2007-08-30 10:18 51°24.855 3°9.316 14.3 335 17.1 101940 67
2007-08-30 10:19 51°24.813 3°8.99 13.8 333 17.1 101950 64
2007-08-30 10:20 51°24.767 3°8.663 14.1 336 17.1 101950 66
2007-08-30 10:21 51°24.724 3°8.335 13.8 333 17.1 101950 67
2007-08-30 10:22 51°24.682 3°8.004 14.2 334 17.1 101950 68
2007-08-30 10:23 51°24.643 3°7.673 13.9 331 17 101950 65
2007-08-30 10:24 51°24.704 3°7.371 12.6 300 17.1 101960 68
2007-08-30 10:25 51°24.843 3°7.149 11.8 309 17.1 101950 69
2007-08-30 10:26 51°24.999 3°6.977 13 306 17.1 101950 69
2007-08-30 10:27 51°25.179 3°6.927 12 306 17 101960 70
2007-08-30 10:28 51°25.363 3°6.899 10 300 17 101960 69
2007-08-30 10:29 51°25.52 3°7.039 8.5 303 17 101970 69
2007-08-30 10:30 51°25.665 3°7.225 6.1 303 17 101980 70
2007-08-30 10:31 51°25.815 3°7.401 6.6 304 17.1 101970 71
2007-08-30 10:32 51°25.925 3°7.639 5 302 17.2 101990 70
2007-08-30 10:33 51°26.047 3°7.858 5.9 301 17.2 101980 70
2007-08-30 10:34 51°26.171 3°8.073 4.6 301 17.3 101980 71
2007-08-30 10:35 51°26.298 3°8.287 5.5 301 17.3 101980 70
2007-08-30 10:36 51°26.426 3°8.502 6.6 303 17.3 101980 69
2007-08-30 10:37 51°26.554 3°8.721 7.7 308 17.3 101970 68
2007-08-30 10:38 51°26.685 3°8.942 5 307 17.3 101970 68
2007-08-30 10:39 51°26.815 3°9.163 7.4 301 17.3 101980 68
2007-08-30 10:40 51°26.946 3°9.382 5.5 309 17.3 101980 67
2007-08-30 10:41 51°27.077 3°9.604 7.1 307 17.3 101980 67
2007-08-30 10:42 51°27.208 3°9.827 6.7 307 17.3 101980 67
2007-08-30 10:43 51°27.342 3°10.048 6.3 300 17.4 101980 68
2007-08-30 10:44 51°27.471 3°10.278 5.8 302 17.4 101970 67
2007-08-30 10:45 51°27.6 3°10.504 6.7 300 17.4 101980 67
2007-08-30 10:46 51°27.726 3°10.732 6.3 301 17.4 101970 67
2007-08-30 10:47 51°27.853 3°10.963 7.6 308 17.4 101970 66
2007-08-30 10:48 51°27.983 3°11.191 6.4 302 17.4 101970 68
2007-08-30 10:49 51°28.108 3°11.425 7.1 305 17.5 101970 68
2007-08-30 10:50 51°28.237 3°11.654 7.4 306 17.4 101970 69
2007-08-30 10:51 51°28.371 3°11.869 10 302 17.4 101960 69
2007-08-30 10:52 51°28.546 3°11.923 12.9 302 17.4 101950 69
2007-08-30 10:53 51°28.73 3°11.897 12.1 304 17.3 101950 72
2007-08-30 10:54 51°28.91 3°11.856 13.6 301 17.2 101930 73
2007-08-30 10:55 51°29.064 3°11.687 13.8 306 17 101940 74
2007-08-30 10:56 51°29.207 3°11.489 13.8 304 17 101940 75
2007-08-30 10:57 51°29.347 3°11.278 13.2 308 17 101940 75
2007-08-30 10:58 51°29.485 3°11.063 13.1 307 17 101940 75
2007-08-30 10:59 51°29.618 3°10.833 13.1 307 17 101940 75
2007-08-30 11:00 51°29.751 3°10.603 14.4 306 17 101930 74
2007-08-30 11:01 51°29.883 3°10.369 14.7 308 16.9 101930 71
2007-08-30 11:02 51°30.018 3°10.138 13.1 304 16.8 101930 70
2007-08-30 11:03 51°30.153 3°9.907 13 302 17 101930 72
2007-08-30 11:04 51°30.285 3°9.677 14.2 303 16.9 101930 71
2007-08-30 11:05 51°30.42 3°9.446 13.2 308 16.9 101930 73
2007-08-30 11:06 51°30.556 3°9.205 13.9 300 16.8 101930 73
2007-08-30 11:07 51°30.687 3°8.963 14.7 323 17 101940 76
2007-08-30 11:08 51°30.82 3°8.721 15 306 16.9 101930 76
2007-08-30 11:09 51°30.952 3°8.477 14.6 304 16.8 101940 76
2007-08-30 11:10 51°31.084 3°8.232 14.1 304 16.9 101940 77
2007-08-30 11:11 51°31.214 3°7.983 13.7 304 16.9 101940 79
2007-08-30 11:12 51°31.347 3°7.739 15 308 16.9 101940 78
2007-08-30 11:13 51°31.481 3°7.496 14.4 305 16.8 101940 77
2007-08-30 11:14 51°31.614 3°7.253 13.1 302 16.8 101940 78
2007-08-30 11:15 51°31.757 3°7.032 14.6 302 16.8 101940 78
2007-08-30 11:16 51°31.909 3°6.822 13 302 16.9 101930 78
2007-08-30 11:17 51°32.06 3°6.612 12.4 308 16.9 101930 77
2007-08-30 11:18 51°32.205 3°6.391 14.9 302 16.9 101920 77
2007-08-30 11:19 51°32.338 3°6.146 14 304 16.9 101930 78
2007-08-30 11:20 51°32.469 3°5.898 13.4 304 16.9 101920 77
2007-08-30 11:21 51°32.601 3°5.651 13.9 302 16.9 101930 76
2007-08-30 11:22 51°32.734 3°5.408 15 306 16.9 101930 77
2007-08-30 11:23 51°32.869 3°5.166 13.7 324 16.8 101930 76
2007-08-30 11:24 51°32.998 3°4.914 13.9 325 16.9 101930 77
2007-08-30 11:25 51°33.129 3°4.664 15.1 304 16.9 101930 78
2007-08-30 11:26 51°33.259 3°4.407 12.5 306 17 101940 79
2007-08-30 11:27 51°33.387 3°4.154 14.3 306 17 101940 78
2007-08-30 11:28 51°33.516 3°3.904 12.4 303 16.9 101940 78
2007-08-30 11:29 51°33.641 3°3.649 13.1 303 16.9 101930 79
2007-08-30 11:30 51°33.768 3°3.393 14.6 303 16.9 101930 76
2007-08-30 11:31 51°33.894 3°3.135 13.2 302 16.9 101930 77
2007-08-30 11:32 51°34.022 3°2.874 13.6 303 17 101930 77
2007-08-30 11:33 51°34.152 3°2.613 14.2 307 17 101940 77
2007-08-30 11:34 51°34.28 3°2.353 13.3 302 16.9 101930 76
2007-08-30 11:35 51°34.404 3°2.094 12.9 301 16.9 101930 76
2007-08-30 11:36 51°34.527 3°1.84 15.5 304 16.9 101940 78
2007-08-30 11:37 51°34.649 3°1.587 12.9 304 16.9 101930 80
2007-08-30 11:38 51°34.77 3°1.335 13.9 305 16.9 101940 81
2007-08-30 11:39 51°34.892 3°1.082 14 326 16.7 101940 80
2007-08-30 11:40 51°35.016 3°0.827 14.3 303 16.7 101940 81
2007-08-30 11:41 51°35.142 3°0.57 14.7 326 16.6 101950 81
2007-08-30 11:42 51°35.265 3°0.306 13.6 330 16.6 101940 79
2007-08-30 11:43 51°35.294 2°59.973 13.9 335 16.7 101930 81
2007-08-30 11:44 51°35.292 2°59.625 14.2 337 16.6 101940 81
2007-08-30 11:45 51°35.237 2°59.284 14.3 340 16.6 101920 79
2007-08-30 11:46 51°35.171 2°58.947 13.4 343 16.6 101930 80
2007-08-30 11:47 51°35.073 2°58.627 13.7 341 16.6 101930 80
2007-08-30 11:48 51°34.979 2°58.305 13.3 340 16.6 101930 81
2007-08-30 11:49 51°34.869 2°57.995 13.9 341 16.5 101930 80
2007-08-30 11:50 51°34.757 2°57.689 13.2 342 16.5 101940 81
2007-08-30 11:51 51°34.643 2°57.383 13.1 344 16.5 101930 80
2007-08-30 11:52 51°34.531 2°57.078 12.7 342 16.5 101940 80
2007-08-30 11:53 51°34.42 2°56.772 12.8 343 16.5 101940 81
2007-08-30 11:54 51°34.311 2°56.467 13.1 340 16.5 101950 82
2007-08-30 11:55 51°34.199 2°56.164 12.7 344 16.5 101940 82
2007-08-30 11:56 51°34.091 2°55.858 14 343 16.6 101950 82
2007-08-30 11:57 51°33.981 2°55.556 13.3 344 16.5 101940 80
2007-08-30 11:58 51°33.871 2°55.25 12.8 343 16.5 101940 80
2007-08-30 11:59 51°33.764 2°54.945 12.7 343 16.5 101950 80
2007-08-30 12:00 51°33.654 2°54.645 12.9 342 16.6 101950 81
2007-08-30 12:01 51°33.543 2°54.345 13 344 16.6 101950 81
2007-08-30 12:02 51°33.433 2°54.048 11.3 340 16.6 101940 81
2007-08-30 12:03 51°33.324 2°53.752 13 343 16.6 101950 81
2007-08-30 12:04 51°33.215 2°53.454 12.7 343 16.5 101940 80
2007-08-30 12:05 51°33.106 2°53.157 12.5 343 16.4 101950 80
2007-08-30 12:06 51°32.997 2°52.862 12.5 345 16.4 101950 81
2007-08-30 12:07 51°32.889 2°52.567 12.1 343 16.4 101940 81
2007-08-30 12:08 51°32.782 2°52.27 12.2 343 16.4 101950 82
2007-08-30 12:09 51°32.674 2°51.976 12.8 344 16.4 101950 81
2007-08-30 12:10 51°32.569 2°51.682 11.7 342 16.3 101950 81
2007-08-30 12:11 51°32.457 2°51.392 13 347 16.3 101960 83
2007-08-30 12:12 51°32.348 2°51.104 12.2 345 16.2 101950 82
2007-08-30 12:13 51°32.238 2°50.814 13.1 348 16.2 101950 83
2007-08-30 12:14 51°32.128 2°50.527 12.8 344 16.3 101960 84
2007-08-30 12:15 51°32.017 2°50.241 11.9 343 16.3 101960 83
2007-08-30 12:16 51°31.903 2°49.961 12.3 340 16.4 101960 84
2007-08-30 12:17 51°31.79 2°49.681 11.5 341 16.3 101960 82
2007-08-30 12:18 51°31.676 2°49.402 11.8 344 16.4 101960 83
2007-08-30 12:19 51°31.563 2°49.124 11.2 347 16.4 101960 83
2007-08-30 12:20 51°31.45 2°48.845 12.1 347 16.4 101960 83
2007-08-30 12:21 51°31.339 2°48.566 11.7 346 16.3 101960 82
2007-08-30 12:22 51°31.227 2°48.291 12.9 349 16.3 101960 83
2007-08-30 12:23 51°31.056 2°48.109 11.3 354 16.3 101970 83
2007-08-30 12:24 51°30.849 2°48.046 8.4 359 16.3 101980 83
2007-08-30 12:25 51°30.635 2°48.068 5.1 6 16.3 101990 84
2007-08-30 12:26 51°30.434 2°48.212 6.2 8 16.3 101990 84
2007-08-30 12:27 51°30.233 2°48.355 6 11 16.2 101990 84
2007-08-30 12:28 51°30.056 2°48.561 1.2 20 16.3 102000 84
2007-08-30 12:29 51°30.016 2°48.911 5.3 309 16.4 102000 85
2007-08-30 12:30 51°30.074 2°49.267 7 301 16.5 102000 85
2007-08-30 12:31 51°30.18 2°49.598 7.2 306 16.6 101990 85
2007-08-30 12:32 51°30.282 2°49.936 6.6 301 16.6 101990 84
2007-08-30 12:33 51°30.385 2°50.27 7 301 16.7 101990 84
2007-08-30 12:34 51°30.489 2°50.603 6 301 16.6 102000 83
2007-08-30 12:35 51°30.589 2°50.94 7.8 303 16.7 101980 84
2007-08-30 12:36 51°30.7 2°51.267 6.5 305 16.7 101990 83
2007-08-30 12:37 51°30.81 2°51.597 8.5 303 16.6 101990 83
2007-08-30 12:38 51°30.915 2°51.93 6.1 305 16.7 101990 83
2007-08-30 12:39 51°31.019 2°52.266 5.3 302 16.7 101980 83
2007-08-30 12:40 51°31.126 2°52.602 5.6 302 16.7 101980 84
2007-08-30 12:41 51°31.231 2°52.935 7.6 309 16.7 101980 84
2007-08-30 12:42 51°31.332 2°53.272 6.8 309 16.7 101990 83
2007-08-30 12:43 51°31.434 2°53.612 5.7 300 16.7 101990 83
2007-08-30 12:44 51°31.538 2°53.947 5.8 308 16.7 101980 84
2007-08-30 12:45 51°31.64 2°54.289 7 305 16.6 101980 83
2007-08-30 12:46 51°31.742 2°54.629 7.3 304 16.6 101980 83
2007-08-30 12:47 51°31.844 2°54.97 6.5 306 16.6 101980 83
2007-08-30 12:48 51°31.948 2°55.309 5.3 302 16.6 101980 83
2007-08-30 12:49 51°32.052 2°55.65 6.6 306 16.7 101990 84
2007-08-30 12:50 51°32.136 2°56 4.4 303 16.7 101980 84
2007-08-30 12:51 51°32.093 2°56.363 0.5 27 16.7 101990 83
2007-08-30 12:52 51°31.984 2°56.692 1.1 358 16.7 102000 82
2007-08-30 12:53 51°31.875 2°57.023 1.4 349 16.6 101990 82
2007-08-30 12:54 51°31.759 2°57.351 2.1 5 16.7 102000 82
2007-08-30 12:55 51°31.64 2°57.676 2 6 16.6 102000 81
2007-08-30 12:56 51°31.53 2°58.005 2.1 349 16.6 102000 80
2007-08-30 12:57 51°31.403 2°58.311 2.6 358 16.7 101990 82
2007-08-30 12:58 51°31.273 2°58.623 1.3 14 16.7 102000 82
2007-08-30 12:59 51°31.149 2°58.938 3.3 12 16.7 102000 83
2007-08-30 13:00 51°31.022 2°59.255 3.7 10 16.7 102000 82
2007-08-30 13:01 51°30.891 2°59.57 2.6 11 16.6 101990 82
2007-08-30 13:02 51°30.763 2°59.88 2.2 12 16.6 101990 82
2007-08-30 13:03 51°30.628 3°0.181 3.1 12 16.6 102000 82
2007-08-30 13:04 51°30.498 3°0.483 3.6 9 16.6 102000 82
2007-08-30 13:05 51°30.368 3°0.781 3 5 16.6 101990 82
2007-08-30 13:06 51°30.24 3°1.084 2.2 360 16.6 101990 82
2007-08-30 13:07 51°30.114 3°1.388 1.6 352 16.5 101990 81
2007-08-30 13:08 51°29.984 3°1.697 1.7 352 16.5 102000 82
2007-08-30 13:09 51°29.852 3°2.004 3.2 360 16.6 101990 83
2007-08-30 13:10 51°29.723 3°2.311 2.9 350 16.5 101990 82
2007-08-30 13:11 51°29.588 3°2.621 2.2 1 16.6 101990 83
2007-08-30 13:12 51°29.454 3°2.925 3.5 12 16.6 101990 84
2007-08-30 13:13 51°29.323 3°3.23 3.7 356 16.6 101990 82
2007-08-30 13:14 51°29.187 3°3.525 4.7 4 16.5 101990 82
2007-08-30 13:15 51°29.014 3°3.746 4 4 16.5 101990 82
2007-08-30 13:16 51°28.839 3°3.96 5.7 358 16.6 101990 82
2007-08-30 13:17 51°28.64 3°4.093 6.6 5 16.6 101980 83
2007-08-30 13:18 51°28.441 3°4.213 5.1 -999 16.6 101980 83
2007-08-30 13:19 51°28.24 3°4.325 7.2 1 16.6 101990 83
2007-08-30 13:20 51°28.039 3°4.431 6.6 360 16.5 101980 82
2007-08-30 13:21 51°27.836 3°4.536 6.6 1 16.5 101990 82
2007-08-30 13:22 51°27.63 3°4.561 7.1 3 16.6 101980 82
2007-08-30 13:23 51°27.426 3°4.585 8.2 1 16.6 101990 82
2007-08-30 13:24 51°27.225 3°4.61 8.5 358 16.7 101980 83
2007-08-30 13:25 51°27.019 3°4.627 7.9 2 16.6 101980 82
2007-08-30 13:26 51°26.819 3°4.653 7.5 4 16.6 101990 82
2007-08-30 13:27 51°26.619 3°4.657 9.5 2 16.6 101980 82
2007-08-30 13:28 51°26.421 3°4.634 9.3 360 16.6 101980 81
2007-08-30 13:29 51°26.225 3°4.612 7.2 2 16.6 101980 82
2007-08-30 13:30 51°26.03 3°4.59 9.6 2 16.7 101980 83
2007-08-30 13:31 51°25.836 3°4.577 8 1 16.7 101980 82
2007-08-30 13:32 51°25.641 3°4.569 7.8 3 16.6 101980 81
2007-08-30 13:33 51°25.445 3°4.56 8.7 1 16.6 101980 82
2007-08-30 13:34 51°25.251 3°4.558 9.8 -999 16.6 101980 82
2007-08-30 13:35 51°25.054 3°4.554 8.9 1 16.6 101970 82
2007-08-30 13:36 51°24.855 3°4.551 7.4 3 16.5 101970 81
2007-08-30 13:37 51°24.653 3°4.546 7.9 1 16.6 101980 81
2007-08-30 13:38 51°24.454 3°4.545 7 4 16.6 101980 83
2007-08-30 13:39 51°24.249 3°4.536 7.8 2 16.7 101980 84
2007-08-30 13:40 51°24.043 3°4.525 8 2 16.7 101980 85
2007-08-30 13:41 51°23.842 3°4.52 7.5 2 16.6 101980 83
2007-08-30 13:42 51°23.639 3°4.505 11 357 16.7 101990 84
2007-08-30 13:43 51°23.465 3°4.404 10.6 355 16.6 101970 83
2007-08-30 13:44 51°23.317 3°4.231 12.3 346 16.6 101980 83
2007-08-30 13:45 51°23.191 3°4.018 11.9 350 16.6 101970 82
2007-08-30 13:46 51°23.061 3°3.809 10.7 349 16.6 101970 83
2007-08-30 13:47 51°22.932 3°3.596 12.3 349 16.6 101970 83
2007-08-30 13:48 51°22.81 3°3.375 12.1 349 16.6 101970 82
2007-08-30 13:49 51°22.689 3°3.153 10.6 347 16.6 101970 81
2007-08-30 13:50 51°22.569 3°2.934 11.9 347 16.7 101970 83
2007-08-30 13:51 51°22.447 3°2.715 11.9 347 16.7 101970 82
2007-08-30 13:52 51°22.334 3°2.488 11.5 350 16.7 101970 83
2007-08-30 13:53 51°22.22 3°2.257 12.2 351 16.7 101960 83
2007-08-30 13:54 51°22.108 3°2.026 12.2 349 16.8 101970 84
2007-08-30 13:55 51°21.996 3°1.795 11 348 16.8 101960 84
2007-08-30 13:56 51°21.884 3°1.566 12 350 16.8 101970 84
2007-08-30 13:57 51°21.777 3°1.329 11.3 349 16.8 101970 84
2007-08-30 13:58 51°21.676 3°1.088 12.5 347 16.8 101970 84
2007-08-30 13:59 51°21.579 3°0.841 11.7 349 16.7 101980 84
2007-08-30 14:00 51°21.481 3°0.598 12 348 16.8 101970 84
2007-08-30 14:01 51°21.385 3°0.355 12.5 349 16.7 101970 84
2007-08-30 14:02 51°21.289 3°0.114 11.7 350 16.7 101970 83
2007-08-30 14:03 51°21.19 2°59.87 12.4 351 16.8 101970 83
2007-08-30 14:04 51°21.093 2°59.631 11.5 353 16.8 101970 82
2007-08-30 14:05 51°20.995 2°59.384 10.4 349 16.8 101970 82
2007-08-30 14:06 51°20.9 2°59.147 12.6 348 16.8 101970 83
2007-08-30 14:07 51°20.804 2°58.903 11.5 348 16.8 101970 82
2007-08-30 14:08 51°20.708 2°58.657 12.4 347 16.8 101970 82
2007-08-30 14:09 51°20.607 2°58.416 11.9 347 16.8 101970 82
2007-08-30 14:10 51°20.505 2°58.174 12.1 347 16.9 101980 82
2007-08-30 14:11 51°20.404 2°57.93 13.6 347 16.9 101970 82
2007-08-30 14:12 51°20.302 2°57.683 11.9 347 16.8 101970 83
2007-08-30 14:13 51°20.203 2°57.444 11.3 344 16.8 101970 82
2007-08-30 14:14 51°20.1 2°57.196 12.5 350 16.9 101970 84
2007-08-30 14:15 51°20 2°56.955 12.2 350 16.9 101970 84
2007-08-30 14:16 51°19.898 2°56.711 12.5 348 16.9 101980 84
2007-08-30 14:17 51°19.795 2°56.466 12.8 349 16.9 101970 84
2007-08-30 14:18 51°19.69 2°56.22 13.2 349 16.9 101980 83
2007-08-30 14:19 51°19.583 2°55.969 12.3 349 16.9 101970 83
2007-08-30 14:20 51°19.48 2°55.723 11.7 348 16.9 101970 83
2007-08-30 14:21 51°19.373 2°55.469 12.4 348 16.9 101970 83
2007-08-30 14:22 51°19.268 2°55.225 12 354 16.9 101980 83
2007-08-30 14:23 51°19.16 2°54.972 12.1 350 16.9 101970 82
2007-08-30 14:24 51°19.056 2°54.727 12 349 16.9 101980 82
2007-08-30 14:25 51°18.949 2°54.473 11.4 349 16.9 101970 82
2007-08-30 14:26 51°18.846 2°54.228 11.4 349 16.9 101970 82
2007-08-30 14:27 51°18.742 2°53.978 11.8 353 17 101970 83
2007-08-30 14:28 51°18.638 2°53.727 12.4 348 17 101970 83
2007-08-30 14:29 51°18.536 2°53.475 11.1 346 16.9 101970 82
2007-08-30 14:30 51°18.432 2°53.218 12.5 343 16.9 101970 81
2007-08-30 14:31 51°18.363 2°52.945 12.6 344 17 101970 83
2007-08-30 14:32 51°18.244 2°52.711 10.9 352 17 101970 82
2007-08-30 14:33 51°18.069 2°52.623 7.2 6 17 101980 84
2007-08-30 14:34 51°17.923 2°52.664 6.4 20 17 102000 84
2007-08-30 14:35 51°17.831 2°52.719 6.6 14 17 102000 84
2007-08-30 14:36 51°17.712 2°52.708 6.8 360 17 102000 84
2007-08-30 14:37 51°17.531 2°52.679 7.1 4 17 101990 83
2007-08-30 14:38 51°17.343 2°52.677 7.7 2 17 101990 84
2007-08-30 14:39 51°17.144 2°52.714 6.2 6 17.1 101990 84
2007-08-30 14:40 51°16.95 2°52.748 6.5 3 17 101990 84
2007-08-30 14:41 51°16.755 2°52.785 6.1 1 17 102000 83
2007-08-30 14:42 51°16.56 2°52.866 4.6 6 17 102000 83
2007-08-30 14:43 51°16.375 2°52.991 4.5 2 17 102000 83
2007-08-30 14:44 51°16.191 2°53.137 5.9 8 17.1 102000 84
2007-08-30 14:45 51°16.004 2°53.277 5.2 3 17 102000 84
2007-08-30 14:46 51°15.815 2°53.422 5 5 17 101990 83
2007-08-30 14:47 51°15.634 2°53.568 6.4 359 17 102010 84
2007-08-30 14:48 51°15.45 2°53.722 5 359 17 102000 83
2007-08-30 14:49 51°15.265 2°53.873 5.2 7 17 102010 84
2007-08-30 14:50 51°15.081 2°54.023 4.6 12 17 102010 84
2007-08-30 14:51 51°14.911 2°54.213 3.5 -999 17.1 102010 84
2007-08-30 14:52 51°14.748 2°54.426 3.3 3 17.1 102010 84
2007-08-30 14:53 51°14.592 2°54.642 1.8 1 17 102010 83
2007-08-30 14:54 51°14.453 2°54.895 2.6 354 17.1 102010 84
2007-08-30 14:55 51°14.335 2°55.132 2.3 29 17.2 102010 84
2007-08-30 14:56 51°14.232 2°55.308 2.4 22 17.2 102010 84
2007-08-30 14:57 51°14.119 2°55.419 4.4 22 17.2 102010 84
2007-08-30 14:58 51°14.026 2°55.488 2.9 12 17.3 102010 84
2007-08-30 14:59 51°13.933 2°55.556 4.3 354 17.3 102010 83
2007-08-30 15:00 51°13.816 2°55.642 2 18 17.3 102000 82
2007-08-30 15:01 51°13.728 2°55.763 2 23 17.3 102010 82
2007-08-30 15:02 51°13.673 2°55.88 2.2 59 17.3 102000 81
2007-08-30 15:03 51°13.634 2°55.973 1.8 53 17.5 102010 82
2007-08-30 15:04 51°13.612 2°56.055 1.7 53 17.5 102010 81
2007-08-30 15:05 51°13.604 2°56.093 3.6 57 17.6 102000 81